sensor_id;sensor_type;location;lat;lon;timestamp;pressure;altitude;pressure_sealevel;temperature;humidity
16016;BME280;8112;53.592;10.184;2023-02-14T00:47:11;103394.75;;;5.66;100.00
16016;BME280;8112;53.592;10.184;2023-02-14T00:52:13;103403.50;;;5.68;100.00
16016;BME280;8112;53.592;10.184;2023-02-14T00:57:15;103405.28;;;5.75;100.00
16016;BME280;8112;53.592;10.184;2023-02-14T01:02:19;103402.66;;;5.74;100.00
16016;BME280;8112;53.592;10.184;2023-02-14T01:07:22;103395.66;;;5.73;100.00
16016;BME280;8112;53.592;10.184;2023-02-14T01:12:24;103396.50;;;5.67;100.00
16016;BME280;8112;53.592;10.184;2023-02-14T01:17:28;103393.88;;;5.64;100.00
16016;BME280;8112;53.592;10.184;2023-02-14T01:22:34;103395.66;;;5.66;100.00
16016;BME280;8112;53.592;10.184;2023-02-14T01:27:36;103382.50;;;5.54;100.00
16016;BME280;8112;53.592;10.184;2023-02-14T01:32:39;103376.41;;;5.55;100.00
16016;BME280;8112;53.592;10.184;2023-02-14T01:37:41;103375.53;;;5.54;100.00
16016;BME280;8112;53.592;10.184;2023-02-14T01:42:46;103377.28;;;5.52;100.00
16016;BME280;8112;53.592;10.184;2023-02-14T01:47:54;103376.41;;;5.60;100.00
16016;BME280;8112;53.592;10.184;2023-02-14T01:53:00;103369.41;;;5.48;100.00
16016;BME280;8112;53.592;10.184;2023-02-14T01:58:07;103365.03;;;5.50;100.00
16016;BME280;8112;53.592;10.184;2023-02-14T02:03:13;103370.31;;;5.57;100.00
16016;BME280;8112;53.592;10.184;2023-02-14T02:08:16;103355.47;;;5.53;100.00
16016;BME280;8112;53.592;10.184;2023-02-14T02:13:20;103358.09;;;5.53;100.00
16016;BME280;8112;53.592;10.184;2023-02-14T02:18:35;103351.13;;;5.59;100.00
16016;BME280;8112;53.592;10.184;2023-02-14T02:29:39;103352.88;;;5.63;100.00
16016;BME280;8112;53.592;10.184;2023-02-14T02:35:14;103338.03;;;5.52;100.00
16016;BME280;8112;53.592;10.184;2023-02-14T02:40:28;103338.84;;;5.45;100.00
16016;BME280;8112;53.592;10.184;2023-02-14T02:45:40;103333.53;;;5.30;100.00
16016;BME280;8112;53.592;10.184;2023-02-14T02:51:06;103334.50;;;5.42;100.00
16016;BME280;8112;53.592;10.184;2023-02-14T02:56:33;103345.78;;;5.38;100.00
16016;BME280;8112;53.592;10.184;2023-02-14T03:01:55;103344.97;;;5.47;100.00
16016;BME280;8112;53.592;10.184;2023-02-14T03:07:00;103334.50;;;5.47;100.00
16016;BME280;8112;53.592;10.184;2023-02-14T03:18:06;103341.47;;;5.48;100.00
16016;BME280;8112;53.592;10.184;2023-02-14T03:23:31;103331.03;;;5.44;100.00
16016;BME280;8112;53.592;10.184;2023-02-14T03:28:41;103324.03;;;5.41;100.00
16016;BME280;8112;53.592;10.184;2023-02-14T03:33:49;103330.09;;;5.31;100.00
16016;BME280;8112;53.592;10.184;2023-02-14T03:39:03;103325.75;;;5.37;100.00
16016;BME280;8112;53.592;10.184;2023-02-14T03:44:11;103319.66;;;5.40;100.00
16016;BME280;8112;53.592;10.184;2023-02-14T03:49:18;103319.63;;;5.35;100.00
16016;BME280;8112;53.592;10.184;2023-02-14T03:54:27;103311.78;;;5.29;100.00
16016;BME280;8112;53.592;10.184;2023-02-14T03:59:31;103308.28;;;5.33;100.00
16016;BME280;8112;53.592;10.184;2023-02-14T04:04:36;103309.13;;;5.24;100.00
16016;BME280;8112;53.592;10.184;2023-02-14T04:09:41;103297.78;;;5.19;100.00
16016;BME280;8112;53.592;10.184;2023-02-14T04:14:43;103296.84;;;5.11;100.00
16016;BME280;8112;53.592;10.184;2023-02-14T04:19:46;103303.91;;;5.24;100.00
16016;BME280;8112;53.592;10.184;2023-02-14T04:24:49;103293.44;;;5.21;100.00
16016;BME280;8112;53.592;10.184;2023-02-14T04:29:51;103302.97;;;5.14;100.00
16016;BME280;8112;53.592;10.184;2023-02-14T04:34:53;103299.53;;;5.23;100.00
16016;BME280;8112;53.592;10.184;2023-02-14T04:39:56;103295.22;;;5.30;100.00
16016;BME280;8112;53.592;10.184;2023-02-14T04:44:58;103286.44;;;5.20;100.00
16016;BME280;8112;53.592;10.184;2023-02-14T04:50:00;103292.56;;;5.19;100.00
16016;BME280;8112;53.592;10.184;2023-02-14T04:55:05;103291.69;;;5.23;100.00
16016;BME280;8112;53.592;10.184;2023-02-14T05:00:09;103290.81;;;5.18;100.00
16016;BME280;8112;53.592;10.184;2023-02-14T05:05:11;103285.59;;;5.23;100.00
16016;BME280;8112;53.592;10.184;2023-02-14T05:10:15;103284.69;;;5.13;100.00
16016;BME280;8112;53.592;10.184;2023-02-14T05:15:17;103291.66;;;5.14;100.00
16016;BME280;8112;53.592;10.184;2023-02-14T05:20:19;103292.53;;;5.16;100.00
16016;BME280;8112;53.592;10.184;2023-02-14T05:25:23;103289.00;;;5.08;100.00
16016;BME280;8112;53.592;10.184;2023-02-14T05:30:26;103286.44;;;5.20;100.00
16016;BME280;8112;53.592;10.184;2023-02-14T05:35:30;103281.22;;;5.20;100.00
16016;BME280;8112;53.592;10.184;2023-02-14T05:40:33;103285.59;;;5.21;100.00
16016;BME280;8112;53.592;10.184;2023-02-14T05:45:35;103272.50;;;5.21;100.00
16016;BME280;8112;53.592;10.184;2023-02-14T05:50:37;103274.25;;;5.21;100.00
16016;BME280;8112;53.592;10.184;2023-02-14T05:55:43;103275.16;;;5.26;100.00
16016;BME280;8112;53.592;10.184;2023-02-14T06:00:45;103274.25;;;5.16;100.00
16016;BME280;8112;53.592;10.184;2023-02-14T06:05:48;103279.50;;;5.25;100.00
16016;BME280;8112;53.592;10.184;2023-02-14T06:10:52;103270.75;;;5.17;100.00
16016;BME280;8112;53.592;10.184;2023-02-14T06:15:54;103261.16;;;5.14;100.00
16016;BME280;8112;53.592;10.184;2023-02-14T06:20:56;103276.00;;;5.23;100.00
16016;BME280;8112;53.592;10.184;2023-02-14T06:25:59;103278.63;;;5.25;100.00
16016;BME280;8112;53.592;10.184;2023-02-14T06:31:01;103280.38;;;5.24;100.00
16016;BME280;8112;53.592;10.184;2023-02-14T06:36:03;103281.22;;;5.17;100.00
16016;BME280;8112;53.592;10.184;2023-02-14T06:41:09;103286.47;;;5.25;100.00
16016;BME280;8112;53.592;10.184;2023-02-14T06:46:11;103283.88;;;5.34;100.00
16016;BME280;8112;53.592;10.184;2023-02-14T06:51:13;103286.53;;;5.33;100.00
16016;BME280;8112;53.592;10.184;2023-02-14T06:56:17;103298.69;;;5.27;100.00
16016;BME280;8112;53.592;10.184;2023-02-14T07:01:21;103301.31;;;5.26;100.00
16016;BME280;8112;53.592;10.184;2023-02-14T07:06:23;103296.09;;;5.29;100.00
16016;BME280;8112;53.592;10.184;2023-02-14T07:11:27;103290.00;;;5.35;100.00
16016;BME280;8112;53.592;10.184;2023-02-14T07:16:28;103271.72;;;5.35;100.00
16016;BME280;8112;53.592;10.184;2023-02-14T07:21:31;103290.09;;;5.56;100.00
16016;BME280;8112;53.592;10.184;2023-02-14T07:26:35;103284.88;;;5.64;100.00
16016;BME280;8112;53.592;10.184;2023-02-14T07:31:36;103283.13;;;5.66;100.00
16016;BME280;8112;53.592;10.184;2023-02-14T07:36:39;103283.16;;;5.74;100.00
16016;BME280;8112;53.592;10.184;2023-02-14T07:41:42;103278.78;;;5.75;100.00
16016;BME280;8112;53.592;10.184;2023-02-14T07:46:44;103285.78;;;5.83;100.00
16016;BME280;8112;53.592;10.184;2023-02-14T07:51:46;103280.59;;;5.97;100.00
16016;BME280;8112;53.592;10.184;2023-02-14T07:56:50;103276.28;;;6.07;100.00
16016;BME280;8112;53.592;10.184;2023-02-14T08:01:52;103278.91;;;6.18;100.00
16016;BME280;8112;53.592;10.184;2023-02-14T08:06:54;103278.03;;;6.32;100.00
16016;BME280;8112;53.592;10.184;2023-02-14T08:11:58;103275.38;;;6.47;100.00
16016;BME280;8112;53.592;10.184;2023-02-14T08:17:18;103277.13;;;6.65;100.00
16016;BME280;8112;53.592;10.184;2023-02-14T08:22:19;103276.22;;;6.79;100.00
16016;BME280;8112;53.592;10.184;2023-02-14T08:27:23;103270.97;;;6.82;100.00
16016;BME280;8112;53.592;10.184;2023-02-14T08:32:25;103274.44;;;6.96;100.00
16016;BME280;8112;53.592;10.184;2023-02-14T08:37:27;103276.13;;;7.16;100.00
16016;BME280;8112;53.592;10.184;2023-02-14T08:42:31;103269.13;;;7.09;100.00
16016;BME280;8112;53.592;10.184;2023-02-14T08:47:35;103266.59;;;6.84;100.00
16016;BME280;8112;53.592;10.184;2023-02-14T08:52:38;103271.88;;;6.73;100.00
16016;BME280;8112;53.592;10.184;2023-02-14T08:57:41;103275.38;;;6.72;100.00
16016;BME280;8112;53.592;10.184;2023-02-14T09:02:44;103275.38;;;6.64;100.00
16016;BME280;8112;53.592;10.184;2023-02-14T09:07:45;103270.09;;;6.78;100.00
16016;BME280;8112;53.592;10.184;2023-02-14T09:12:49;103269.22;;;6.79;100.00
16016;BME280;8112;53.592;10.184;2023-02-14T09:17:51;103265.72;;;6.76;100.00
16016;BME280;8112;53.592;10.184;2023-02-14T09:22:54;103255.22;;;6.93;100.00
16016;BME280;8112;53.592;10.184;2023-02-14T09:27:58;103257.81;;;6.99;100.00
16016;BME280;8112;53.592;10.184;2023-02-14T09:33:00;103263.91;;;7.06;100.00
16016;BME280;8112;53.592;10.184;2023-02-14T09:38:05;103256.00;;;7.12;100.00
16016;BME280;8112;53.592;10.184;2023-02-14T09:43:14;103249.91;;;7.10;100.00
16016;BME280;8112;53.592;10.184;2023-02-14T09:48:23;103255.09;;;7.22;100.00
16016;BME280;8112;53.592;10.184;2023-02-14T09:53:29;103245.41;;;7.40;100.00
16016;BME280;8112;53.592;10.184;2023-02-14T09:58:37;103242.69;;;7.55;100.00
16016;BME280;8112;53.592;10.184;2023-02-14T10:03:57;103238.25;;;7.64;100.00
16016;BME280;8112;53.592;10.184;2023-02-14T10:09:10;103237.34;;;7.68;100.00
16016;BME280;8112;53.592;10.184;2023-02-14T10:14:18;103242.59;;;7.68;100.00
16016;BME280;8112;53.592;10.184;2023-02-14T10:19:24;103239.13;;;7.69;100.00
16016;BME280;8112;53.592;10.184;2023-02-14T10:24:31;103237.22;;;7.87;100.00
16016;BME280;8112;53.592;10.184;2023-02-14T10:29:36;103238.91;;;7.97;100.00
16016;BME280;8112;53.592;10.184;2023-02-14T10:34:42;103231.88;;;7.99;100.00
16016;BME280;8112;53.592;10.184;2023-02-14T10:39:58;103225.72;;;8.05;100.00
16016;BME280;8112;53.592;10.184;2023-02-14T10:45:13;103220.53;;;7.98;100.00
16016;BME280;8112;53.592;10.184;2023-02-14T10:50:22;103213.34;;;8.18;100.00
16016;BME280;8112;53.592;10.184;2023-02-14T10:55:38;103212.44;;;8.22;100.00
16016;BME280;8112;53.592;10.184;2023-02-14T11:00:52;103208.72;;;8.45;100.00
16016;BME280;8112;53.592;10.184;2023-02-14T11:05:56;103219.97;;;8.59;100.00
16016;BME280;8112;53.592;10.184;2023-02-14T11:11:09;103206.63;;;8.81;100.00
16016;BME280;8112;53.592;10.184;2023-02-14T11:16:28;103197.00;;;9.44;100.00
16016;BME280;8112;53.592;10.184;2023-02-14T11:21:36;103198.78;;;9.42;100.00
16016;BME280;8112;53.592;10.184;2023-02-14T11:26:38;103192.91;;;9.82;100.00
16016;BME280;8112;53.592;10.184;2023-02-14T11:31:47;103182.69;;;10.16;100.00
16016;BME280;8112;53.592;10.184;2023-02-14T11:36:49;103174.78;;;10.64;100.00
16016;BME280;8112;53.592;10.184;2023-02-14T11:41:52;103161.75;;;10.55;100.00
16016;BME280;8112;53.592;10.184;2023-02-14T11:47:15;103151.56;;;10.82;100.00
16016;BME280;8112;53.592;10.184;2023-02-14T11:52:18;103150.88;;;11.13;100.00
16016;BME280;8112;53.592;10.184;2023-02-14T11:57:28;103135.63;;;10.44;100.00
16016;BME280;8112;53.592;10.184;2023-02-14T12:02:37;103131.34;;;9.90;100.00
16016;BME280;8112;53.592;10.184;2023-02-14T12:07:42;103116.16;;;9.52;100.00
16016;BME280;8112;53.592;10.184;2023-02-14T12:12:50;103113.25;;;9.68;100.00
16016;BME280;8112;53.592;10.184;2023-02-14T12:17:58;103108.09;;;10.12;100.00
16016;BME280;8112;53.592;10.184;2023-02-14T12:23:04;103105.00;;;10.81;100.00
16016;BME280;8112;53.592;10.184;2023-02-14T12:28:14;103091.78;;;11.57;100.00
16016;BME280;8112;53.592;10.184;2023-02-14T12:33:20;103094.84;;;12.07;100.00
16016;BME280;8112;53.592;10.184;2023-02-14T12:38:32;103090.72;;;12.30;100.00
16016;BME280;8112;53.592;10.184;2023-02-14T12:43:46;103086.63;;;12.50;100.00
16016;BME280;8112;53.592;10.184;2023-02-14T12:49:09;103068.84;;;12.83;100.00
16016;BME280;8112;53.592;10.184;2023-02-14T12:54:27;103066.41;;;13.33;100.00
16016;BME280;8112;53.592;10.184;2023-02-14T12:59:38;103059.81;;;13.97;100.00
16016;BME280;8112;53.592;10.184;2023-02-14T13:04:53;103049.56;;;14.35;100.00
16016;BME280;8112;53.592;10.184;2023-02-14T13:10:03;103036.09;;;15.08;100.00
16016;BME280;8112;53.592;10.184;2023-02-14T13:15:19;103028.09;;;15.31;100.00
16016;BME280;8112;53.592;10.184;2023-02-14T13:20:46;103021.50;;;15.60;100.00
16016;BME280;8112;53.592;10.184;2023-02-14T13:25:54;103018.16;;;15.96;100.00
16016;BME280;8112;53.592;10.184;2023-02-14T13:30:58;103011.91;;;16.55;100.00
16016;BME280;8112;53.592;10.184;2023-02-14T13:36:05;103008.72;;;16.29;100.00
16016;BME280;8112;53.592;10.184;2023-02-14T13:41:08;102993.84;;;16.62;100.00
16016;BME280;8112;53.592;10.184;2023-02-14T13:46:11;102997.00;;;17.07;100.00
16016;BME280;8112;53.592;10.184;2023-02-14T13:51:15;103001.69;;;17.37;100.00
16016;BME280;8112;53.592;10.184;2023-02-14T13:56:31;102994.34;;;17.24;100.00
16016;BME280;8112;53.592;10.184;2023-02-14T14:01:37;102987.56;;;17.00;100.00
16016;BME280;8112;53.592;10.184;2023-02-14T14:12:42;102966.56;;;16.93;100.00
16016;BME280;8112;53.592;10.184;2023-02-14T14:23:32;102976.03;;;17.52;100.00
16016;BME280;8112;53.592;10.184;2023-02-14T14:28:35;102973.94;;;16.88;100.00
16016;BME280;8112;53.592;10.184;2023-02-14T14:33:38;102959.97;;;15.90;100.00
16016;BME280;8112;53.592;10.184;2023-02-14T14:38:46;102974.97;;;13.73;100.00
16016;BME280;8112;53.592;10.184;2023-02-14T14:43:51;102975.84;;;12.10;100.00
16016;BME280;8112;53.592;10.184;2023-02-14T14:48:55;102972.53;;;11.39;100.00
16016;BME280;8112;53.592;10.184;2023-02-14T14:54:00;102967.75;;;10.84;100.00
16016;BME280;8112;53.592;10.184;2023-02-14T14:59:18;102960.19;;;10.29;100.00
16016;BME280;8112;53.592;10.184;2023-02-14T15:04:24;102962.38;;;10.08;100.00
16016;BME280;8112;53.592;10.184;2023-02-14T15:09:31;102953.91;;;9.94;100.00
16016;BME280;8112;53.592;10.184;2023-02-14T15:14:39;102950.81;;;9.73;100.00
16016;BME280;8112;53.592;10.184;2023-02-14T15:19:43;102946.13;;;9.42;100.00
16016;BME280;8112;53.592;10.184;2023-02-14T15:24:47;102949.97;;;9.22;100.00
16016;BME280;8112;53.592;10.184;2023-02-14T15:30:00;102939.56;;;9.16;100.00
16016;BME280;8112;53.592;10.184;2023-02-14T15:35:06;102928.44;;;9.00;100.00
16016;BME280;8112;53.592;10.184;2023-02-14T15:40:15;102934.84;;;8.85;100.00
16016;BME280;8112;53.592;10.184;2023-02-14T15:45:29;102935.97;;;8.67;100.00
16016;BME280;8112;53.592;10.184;2023-02-14T15:50:33;102925.63;;;8.58;100.00
16016;BME280;8112;53.592;10.184;2023-02-14T15:55:35;102929.28;;;8.46;100.00
16016;BME280;8112;53.592;10.184;2023-02-14T16:00:41;102923.41;;;8.28;100.00
16016;BME280;8112;53.592;10.184;2023-02-14T16:05:45;102917.47;;;8.13;100.00
16016;BME280;8112;53.592;10.184;2023-02-14T16:10:57;102915.97;;;7.92;100.00
16016;BME280;8112;53.592;10.184;2023-02-14T16:16:03;102910.16;;;7.68;100.00
16016;BME280;8112;53.592;10.184;2023-02-14T16:21:11;102913.81;;;7.53;100.00
16016;BME280;8112;53.592;10.184;2023-02-14T16:26:15;102923.63;;;7.36;100.00
16016;BME280;8112;53.592;10.184;2023-02-14T16:31:19;102916.72;;;7.25;100.00
16016;BME280;8112;53.592;10.184;2023-02-14T16:36:23;102903.72;;;7.13;100.00
16016;BME280;8112;53.592;10.184;2023-02-14T16:41:27;102908.25;;;6.97;100.00
16016;BME280;8112;53.592;10.184;2023-02-14T16:46:34;102911.00;;;6.83;100.00
16016;BME280;8112;53.592;10.184;2023-02-14T16:51:36;102902.41;;;6.65;100.00
16016;BME280;8112;53.592;10.184;2023-02-14T16:56:42;102911.19;;;6.55;100.00
16016;BME280;8112;53.592;10.184;2023-02-14T17:01:46;102906.00;;;6.49;100.00
16016;BME280;8112;53.592;10.184;2023-02-14T17:06:50;102906.97;;;6.37;100.00
16016;BME280;8112;53.592;10.184;2023-02-14T17:11:55;102914.03;;;6.22;100.00
16016;BME280;8112;53.592;10.184;2023-02-14T17:17:00;102912.38;;;6.07;100.00
16016;BME280;8112;53.592;10.184;2023-02-14T17:22:04;102921.13;;;5.89;100.00
16016;BME280;8112;53.592;10.184;2023-02-14T17:27:06;102914.16;;;5.83;100.00
16016;BME280;8112;53.592;10.184;2023-02-14T17:32:11;102914.19;;;5.79;100.00
16016;BME280;8112;53.592;10.184;2023-02-14T17:37:13;102909.84;;;5.73;100.00
16016;BME280;8112;53.592;10.184;2023-02-14T17:42:18;102910.72;;;5.66;100.00
16016;BME280;8112;53.592;10.184;2023-02-14T17:47:21;102913.38;;;5.60;100.00
16016;BME280;8112;53.592;10.184;2023-02-14T17:52:24;102912.53;;;5.53;100.00
16016;BME280;8112;53.592;10.184;2023-02-14T17:57:27;102915.16;;;5.47;100.00
16016;BME280;8112;53.592;10.184;2023-02-14T18:02:31;102905.56;;;5.39;100.00
16016;BME280;8112;53.592;10.184;2023-02-14T18:07:33;102898.63;;;5.32;100.00
16016;BME280;8112;53.592;10.184;2023-02-14T18:12:35;102898.63;;;5.29;100.00
16016;BME280;8112;53.592;10.184;2023-02-14T18:17:38;102883.81;;;5.30;100.00
16016;BME280;8112;53.592;10.184;2023-02-14T18:22:40;102882.06;;;5.25;100.00
16016;BME280;8112;53.592;10.184;2023-02-14T18:27:42;102881.25;;;5.14;100.00
16016;BME280;8112;53.592;10.184;2023-02-14T18:32:46;102873.38;;;5.11;100.00
16016;BME280;8112;53.592;10.184;2023-02-14T18:37:49;102877.75;;;5.06;100.00
16016;BME280;8112;53.592;10.184;2023-02-14T18:42:51;102870.78;;;5.03;100.00
16016;BME280;8112;53.592;10.184;2023-02-14T18:47:58;102873.41;;;4.98;100.00
16016;BME280;8112;53.592;10.184;2023-02-14T18:52:59;102875.16;;;4.87;100.00
16016;BME280;8112;53.592;10.184;2023-02-14T18:58:02;102868.19;;;4.86;100.00
16016;BME280;8112;53.592;10.184;2023-02-14T19:03:06;102877.78;;;4.92;100.00
16016;BME280;8112;53.592;10.184;2023-02-14T19:08:08;102880.38;;;4.93;100.00
16016;BME280;8112;53.592;10.184;2023-02-14T19:13:10;102869.94;;;4.90;100.00
16016;BME280;8112;53.592;10.184;2023-02-14T19:18:14;102862.97;;;4.81;100.00
16016;BME280;8112;53.592;10.184;2023-02-14T19:23:16;102860.38;;;4.80;100.00
16016;BME280;8112;53.592;10.184;2023-02-14T19:28:19;102860.34;;;4.74;100.00
16016;BME280;8112;53.592;10.184;2023-02-14T19:33:24;102866.44;;;4.69;100.00
16016;BME280;8112;53.592;10.184;2023-02-14T19:38:27;102856.00;;;4.69;100.00
16016;BME280;8112;53.592;10.184;2023-02-14T19:43:29;102862.97;;;4.67;100.00
16016;BME280;8112;53.592;10.184;2023-02-14T19:48:33;102859.50;;;4.65;100.00
16016;BME280;8112;53.592;10.184;2023-02-14T19:53:37;102876.03;;;4.61;100.00
16016;BME280;8112;53.592;10.184;2023-02-14T19:58:39;102883.88;;;4.58;100.00
16016;BME280;8112;53.592;10.184;2023-02-14T20:03:43;102873.41;;;4.55;100.00
16016;BME280;8112;53.592;10.184;2023-02-14T20:08:46;102869.06;;;4.49;100.00
16016;BME280;8112;53.592;10.184;2023-02-14T20:13:52;102869.06;;;4.41;100.00
16016;BME280;8112;53.592;10.184;2023-02-14T20:18:57;102865.56;;;4.41;100.00
16016;BME280;8112;53.592;10.184;2023-02-14T20:24:00;102857.72;;;4.35;100.00
16016;BME280;8112;53.592;10.184;2023-02-14T20:29:08;102852.50;;;4.28;100.00
16016;BME280;8112;53.592;10.184;2023-02-14T20:34:12;102849.88;;;4.25;100.00
16016;BME280;8112;53.592;10.184;2023-02-14T20:39:17;102849.88;;;4.24;100.00
16016;BME280;8112;53.592;10.184;2023-02-14T20:44:19;102851.63;;;4.22;100.00
16016;BME280;8112;53.592;10.184;2023-02-14T20:49:24;102839.44;;;4.16;100.00
16016;BME280;8112;53.592;10.184;2023-02-14T20:54:28;102838.56;;;4.09;100.00
16016;BME280;8112;53.592;10.184;2023-02-14T20:59:31;102838.53;;;4.06;100.00
16016;BME280;8112;53.592;10.184;2023-02-14T21:04:34;102831.56;;;3.99;100.00
16016;BME280;8112;53.592;10.184;2023-02-14T21:09:37;102831.53;;;3.90;100.00
16016;BME280;8112;53.592;10.184;2023-02-14T21:14:39;102831.50;;;3.79;100.00
16016;BME280;8112;53.592;10.184;2023-02-14T21:19:44;102818.44;;;3.71;100.00
16016;BME280;8112;53.592;10.184;2023-02-14T21:24:48;102816.69;;;3.70;100.00
16016;BME280;8112;53.592;10.184;2023-02-14T21:29:50;102816.63;;;3.56;100.00
16016;BME280;8112;53.592;10.184;2023-02-14T21:34:56;102810.53;;;3.49;100.00
16016;BME280;8112;53.592;10.184;2023-02-14T21:39:58;102820.06;;;3.39;100.00
16016;BME280;8112;53.592;10.184;2023-02-14T21:45:02;102820.88;;;3.35;100.00
16016;BME280;8112;53.592;10.184;2023-02-14T21:50:25;102819.16;;;3.36;100.00
16016;BME280;8112;53.592;10.184;2023-02-14T21:55:33;102807.88;;;3.37;100.00
16016;BME280;8112;53.592;10.184;2023-02-14T22:00:38;102813.06;;;3.35;100.00
16016;BME280;8112;53.592;10.184;2023-02-14T22:05:41;102811.34;;;3.36;100.00
16016;BME280;8112;53.592;10.184;2023-02-14T22:10:43;102803.53;;;3.33;100.00
16016;BME280;8112;53.592;10.184;2023-02-14T22:15:45;102794.00;;;3.46;100.00
16016;BME280;8112;53.592;10.184;2023-02-14T22:20:49;102786.28;;;3.78;100.00
16016;BME280;8112;53.592;10.184;2023-02-14T22:25:54;102794.16;;;4.08;100.00
16016;BME280;8112;53.592;10.184;2023-02-14T22:30:58;102791.59;;;4.31;100.00
16016;BME280;8112;53.592;10.184;2023-02-14T22:36:03;102786.38;;;4.47;100.00
16016;BME280;8112;53.592;10.184;2023-02-14T22:41:09;102781.16;;;4.50;100.00
16016;BME280;8112;53.592;10.184;2023-02-14T22:46:14;102780.28;;;4.60;100.00
16016;BME280;8112;53.592;10.184;2023-02-14T22:51:20;102777.66;;;4.60;100.00
16016;BME280;8112;53.592;10.184;2023-02-14T22:56:24;102781.16;;;4.59;100.00
16016;BME280;8112;53.592;10.184;2023-02-14T23:01:27;102784.63;;;4.58;100.00
16016;BME280;8112;53.592;10.184;2023-02-14T23:06:33;102782.88;;;4.63;100.00
16016;BME280;8112;53.592;10.184;2023-02-14T23:11:37;102776.78;;;4.70;100.00
16016;BME280;8112;53.592;10.184;2023-02-14T23:16:39;102773.31;;;4.67;100.00
16016;BME280;8112;53.592;10.184;2023-02-14T23:22:03;102775.91;;;4.62;100.00
16016;BME280;8112;53.592;10.184;2023-02-14T23:27:08;102767.19;;;4.69;100.00
16016;BME280;8112;53.592;10.184;2023-02-14T23:32:10;102760.25;;;4.65;100.00
16016;BME280;8112;53.592;10.184;2023-02-14T23:37:14;102752.41;;;4.67;100.00
16016;BME280;8112;53.592;10.184;2023-02-14T23:42:16;102756.75;;;4.69;100.00
16016;BME280;8112;53.592;10.184;2023-02-14T23:47:18;102756.75;;;4.69;100.00
16016;BME280;8112;53.592;10.184;2023-02-14T23:52:22;102743.69;;;4.62;100.00
16016;BME280;8112;53.592;10.184;2023-02-14T23:57:25;102745.44;;;4.60;100.00
